Time;durP1;ratioP1;P1;durP2;ratioP2;P2;SDS_P1;SDS_P2;PMS_P1;PMS_P2;Temp;Humidity;BMP_temperature;BMP_pressure;BME280_temperature;BME280_humidity;BME280_pressure;Samples;Min_cycle;Max_cycle;Signal;HPM_P1;HPM_P2
2023/06/19 00:00:56;;;;;;;7.95;7.15;;;16.30;99.90;;;;;;4130705;28;20034;-62
2023/06/19 00:02:57;;;;;;;8.60;6.90;;;16.30;99.90;;;;;;4130863;28;20503;-61
2023/06/19 00:04:59;;;;;;;8.32;7.00;;;16.30;99.90;;;;;;4128243;28;20113;-62
2023/06/19 00:07:01;;;;;;;11.68;8.30;;;16.20;99.90;;;;;;4129838;28;20089;-60
2023/06/19 00:09:02;;;;;;;9.68;7.10;;;16.20;99.90;;;;;;4131399;28;20080;-62
2023/06/19 00:11:03;;;;;;;9.45;6.90;;;16.10;99.90;;;;;;4129476;28;20884;-60
2023/06/19 00:13:05;;;;;;;9.20;7.03;;;16.10;99.90;;;;;;4129944;28;20034;-63
2023/06/19 00:15:09;;;;;;;9.82;7.25;;;16.10;99.90;;;;;;4128985;28;20458;-60
2023/06/19 00:17:10;;;;;;;9.75;7.18;;;16.00;99.90;;;;;;4131252;28;20026;-60
2023/06/19 00:19:12;;;;;;;9.60;7.10;;;16.00;99.90;;;;;;4129002;28;20483;-60
2023/06/19 00:21:13;;;;;;;10.02;7.90;;;16.00;99.90;;;;;;4130183;28;20073;-59
2023/06/19 00:23:16;;;;;;;10.32;7.00;;;16.00;99.90;;;;;;4129747;28;20081;-62
2023/06/19 00:25:19;;;;;;;8.90;8.00;;;16.00;99.90;;;;;;4130619;28;20154;-62
2023/06/19 00:27:20;;;;;;;9.23;7.28;;;15.90;99.90;;;;;;4129723;28;20026;-62
2023/06/19 00:29:21;;;;;;;9.80;7.78;;;16.00;99.90;;;;;;4130892;28;20546;-62
2023/06/19 00:31:23;;;;;;;9.35;6.95;;;15.90;99.90;;;;;;4144140;28;20034;-62
2023/06/19 00:33:24;;;;;;;10.45;7.32;;;15.90;99.90;;;;;;4130171;28;20038;-62
2023/06/19 00:35:27;;;;;;;9.93;8.90;;;15.90;99.90;;;;;;4129925;28;20097;-61
2023/06/19 00:37:32;;;;;;;11.68;9.90;;;15.90;99.90;;;;;;4129721;28;20038;-62
2023/06/19 00:39:34;;;;;;;15.23;10.43;;;15.90;99.90;;;;;;4130844;28;20065;-63
2023/06/19 00:41:36;;;;;;;13.57;10.85;;;15.80;99.90;;;;;;4130189;28;20038;-62
2023/06/19 00:43:37;;;;;;;13.25;9.65;;;15.80;99.90;;;;;;4130343;28;20031;-62
2023/06/19 00:45:39;;;;;;;10.85;9.23;;;15.80;99.90;;;;;;4129583;28;20034;-62
2023/06/19 00:47:40;;;;;;;12.38;9.98;;;15.80;99.90;;;;;;4130958;28;20422;-62
2023/06/19 00:49:41;;;;;;;10.05;7.47;;;15.80;99.90;;;;;;4129600;28;21879;-62
2023/06/19 00:51:42;;;;;;;9.32;7.90;;;15.80;99.90;;;;;;4144882;28;20038;-62
2023/06/19 00:53:43;;;;;;;10.55;7.68;;;15.80;99.90;;;;;;4128462;28;20031;-61
2023/06/19 00:55:46;;;;;;;8.40;7.25;;;15.80;99.90;;;;;;4130192;28;20434;-61
2023/06/19 00:57:49;;;;;;;8.73;6.72;;;15.80;99.90;;;;;;4129537;28;20463;-64
2023/06/19 00:59:51;;;;;;;8.00;6.35;;;15.70;99.90;;;;;;4129957;28;20043;-64
2023/06/19 01:01:52;;;;;;;7.43;6.70;;;15.80;99.90;;;;;;4128806;28;20077;-62
2023/06/19 01:03:54;;;;;;;11.27;7.20;;;15.70;99.90;;;;;;4129993;28;20038;-63
2023/06/19 01:05:58;;;;;;;10.55;7.25;;;15.70;99.90;;;;;;4129246;28;20096;-62
2023/06/19 01:08:23;;;;;;;12.63;6.95;;;15.60;99.90;;;;;;4129952;28;20065;-61
2023/06/19 01:10:36;;;;;;;8.73;7.22;;;15.60;99.90;;;;;;4128782;28;20038;-60
2023/06/19 01:12:48;;;;;;;8.05;7.25;;;15.70;99.90;;;;;;4130388;28;20026;-61
2023/06/19 01:15:02;;;;;;;10.18;7.30;;;15.60;99.90;;;;;;4129125;28;20026;-64
2023/06/19 01:17:05;;;;;;;9.30;6.88;;;15.60;99.90;;;;;;4130151;28;20034;-63
2023/06/19 01:19:10;;;;;;;9.88;6.85;;;15.60;99.90;;;;;;4128280;28;20026;-62
2023/06/19 01:21:16;;;;;;;8.93;7.40;;;15.60;99.90;;;;;;4130341;28;20034;-62
2023/06/19 01:23:17;;;;;;;8.95;8.05;;;15.60;99.90;;;;;;4129194;28;20108;-61
2023/06/19 01:25:18;;;;;;;9.27;7.82;;;15.60;99.90;;;;;;4129860;28;20096;-63
2023/06/19 01:27:20;;;;;;;11.48;8.02;;;15.50;99.90;;;;;;4128944;28;20093;-62
2023/06/19 01:29:22;;;;;;;23.70;21.23;;;15.30;99.90;;;;;;4129713;28;20034;-63
2023/06/19 01:31:36;;;;;;;23.27;20.58;;;15.20;99.90;;;;;;4129908;28;20034;-61
2023/06/19 01:33:39;;;;;;;25.95;20.92;;;15.10;99.90;;;;;;4128201;28;20454;-62
2023/06/19 01:35:43;;;;;;;21.13;14.55;;;15.10;99.90;;;;;;4129785;28;20109;-64
2023/06/19 01:37:47;;;;;;;12.35;10.32;;;15.10;99.90;;;;;;4128962;28;20034;-61
2023/06/19 01:39:49;;;;;;;12.55;8.80;;;15.10;99.90;;;;;;4130240;28;20026;-62
2023/06/19 01:41:52;;;;;;;13.60;8.70;;;15.00;99.90;;;;;;4128712;28;20027;-63
2023/06/19 01:43:53;;;;;;;11.77;8.48;;;15.00;99.90;;;;;;4129213;28;20088;-63
2023/06/19 01:45:55;;;;;;;11.60;8.07;;;15.00;99.90;;;;;;4128843;28;20093;-62
2023/06/19 01:47:56;;;;;;;14.73;8.75;;;14.90;99.90;;;;;;4129564;28;20081;-62
2023/06/19 01:49:58;;;;;;;9.88;8.30;;;14.90;99.90;;;;;;4128788;28;20439;-62
2023/06/19 01:52:00;;;;;;;10.50;8.93;;;14.90;99.90;;;;;;4129175;28;20101;-64
2023/06/19 01:54:02;;;;;;;12.35;8.57;;;14.90;99.90;;;;;;4128674;28;20069;-61
2023/06/19 01:56:03;;;;;;;8.55;7.47;;;14.80;99.90;;;;;;4128710;28;20046;-62
2023/06/19 01:58:04;;;;;;;9.38;7.70;;;14.80;99.90;;;;;;4127455;28;20034;-62
2023/06/19 02:00:07;;;;;;;9.07;7.70;;;14.80;99.90;;;;;;4113350;28;20043;-63
2023/06/19 02:02:09;;;;;;;10.20;7.85;;;14.80;99.90;;;;;;4126600;28;20014;-62
2023/06/19 02:04:10;;;;;;;12.00;8.40;;;14.80;99.90;;;;;;4128389;28;20034;-63
2023/06/19 02:06:11;;;;;;;12.10;8.23;;;14.80;99.90;;;;;;4128906;28;20442;-62
2023/06/19 02:08:12;;;;;;;10.32;7.93;;;14.80;99.90;;;;;;4128701;28;20030;-63
2023/06/19 02:10:14;;;;;;;11.02;8.35;;;14.80;99.90;;;;;;4128809;28;20093;-62
2023/06/19 02:12:15;;;;;;;11.18;8.43;;;14.80;99.90;;;;;;4128481;28;20076;-62
2023/06/19 02:14:17;;;;;;;10.75;8.25;;;14.80;99.90;;;;;;4129260;28;20557;-62
2023/06/19 02:16:18;;;;;;;11.25;8.25;;;14.80;99.90;;;;;;4128337;28;20511;-61
2023/06/19 02:18:19;;;;;;;11.98;9.02;;;14.80;99.90;;;;;;4129544;28;20030;-63
2023/06/19 02:20:27;;;;;;;13.68;8.55;;;14.80;99.90;;;;;;4126018;28;20380;-64
2023/06/19 02:22:28;;;;;;;13.82;8.63;;;14.80;99.90;;;;;;4113120;28;20456;-62
2023/06/19 02:24:29;;;;;;;11.82;8.25;;;14.80;99.90;;;;;;4112153;28;20107;-62
2023/06/19 02:26:30;;;;;;;9.82;7.88;;;14.80;99.90;;;;;;4118922;28;20127;-62
2023/06/19 02:28:31;;;;;;;11.77;7.75;;;14.80;99.90;;;;;;4127879;28;20442;-62
2023/06/19 02:30:33;;;;;;;15.00;8.07;;;14.80;99.90;;;;;;4129018;28;20105;-64
2023/06/19 02:32:34;;;;;;;12.65;7.97;;;14.80;99.90;;;;;;4128402;28;20031;-65
2023/06/19 02:34:35;;;;;;;11.55;7.75;;;14.70;99.90;;;;;;4126824;28;20042;-64
2023/06/19 02:36:36;;;;;;;10.23;8.25;;;14.70;99.90;;;;;;4128218;28;20445;-64
2023/06/19 02:38:37;;;;;;;15.30;7.72;;;14.70;99.90;;;;;;4128008;28;20030;-68
2023/06/19 02:40:39;;;;;;;9.27;7.80;;;14.60;99.90;;;;;;4129261;28;20134;-69
2023/06/19 02:42:40;;;;;;;10.93;7.90;;;14.60;99.90;;;;;;4127673;28;20065;-67
2023/06/19 02:44:43;;;;;;;11.98;7.68;;;14.60;99.90;;;;;;4128987;28;20034;-70
2023/06/19 02:46:44;;;;;;;19.80;10.65;;;14.60;99.90;;;;;;4127708;28;20030;-68
2023/06/19 02:48:45;;;;;;;12.43;9.35;;;14.70;99.90;;;;;;4129194;28;20467;-65
2023/06/19 02:50:46;;;;;;;14.15;8.27;;;14.60;99.90;;;;;;4127712;28;20046;-64
2023/06/19 02:52:47;;;;;;;10.60;7.55;;;14.60;99.90;;;;;;4129093;28;20081;-64
2023/06/19 02:54:48;;;;;;;12.35;8.48;;;14.50;99.90;;;;;;4128006;28;20557;-64
2023/06/19 02:56:49;;;;;;;12.68;8.50;;;14.50;99.90;;;;;;4128983;28;20042;-63
2023/06/19 02:58:50;;;;;;;11.10;8.57;;;14.40;99.90;;;;;;4127641;28;20031;-64
2023/06/19 03:00:52;;;;;;;10.60;8.10;;;14.30;99.90;;;;;;4127944;28;20038;-69
2023/06/19 03:02:53;;;;;;;12.48;8.80;;;14.10;99.90;;;;;;4127263;28;20136;-66
2023/06/19 03:04:54;;;;;;;11.73;8.70;;;13.90;99.90;;;;;;4128471;28;20034;-63
2023/06/19 03:06:55;;;;;;;14.38;9.18;;;13.80;99.90;;;;;;4128261;28;20026;-63
2023/06/19 03:08:56;;;;;;;17.25;9.50;;;13.60;99.90;;;;;;4128092;28;20542;-63
2023/06/19 03:10:57;;;;;;;104.05;12.18;;;13.40;99.90;;;;;;4128439;28;20113;-63
2023/06/19 03:12:59;;;;;;;92.20;11.93;;;13.30;99.90;;;;;;4128086;28;20483;-63
2023/06/19 03:15:00;;;;;;;81.15;12.27;;;13.20;99.90;;;;;;4128294;28;20030;-63
2023/06/19 03:17:01;;;;;;;130.23;13.38;;;13.10;99.90;;;;;;4127776;28;20092;-62
2023/06/19 03:19:02;;;;;;;81.10;12.57;;;13.10;99.90;;;;;;4128019;28;20089;-63
2023/06/19 03:21:03;;;;;;;186.05;15.43;;;13.10;99.90;;;;;;4127631;28;20507;-63
2023/06/19 03:23:05;;;;;;;77.60;13.23;;;13.10;99.90;;;;;;4128345;28;20034;-63
2023/06/19 03:25:06;;;;;;;23.87;12.53;;;13.20;99.90;;;;;;4127424;28;20042;-62
2023/06/19 03:27:07;;;;;;;74.00;13.53;;;13.30;99.90;;;;;;4128630;28;20038;-62
2023/06/19 03:29:08;;;;;;;69.83;12.93;;;13.40;99.90;;;;;;4127557;28;20038;-62
2023/06/19 03:31:09;;;;;;;44.13;13.13;;;13.60;99.90;;;;;;4128891;28;20105;-62
2023/06/19 03:33:10;;;;;;;31.73;11.83;;;13.80;99.90;;;;;;4127610;28;20368;-63
2023/06/19 03:35:12;;;;;;;26.53;12.33;;;13.80;99.90;;;;;;4128178;28;20047;-65
2023/06/19 03:37:13;;;;;;;48.67;12.40;;;14.00;99.90;;;;;;4127453;28;20030;-62
2023/06/19 03:39:14;;;;;;;16.65;11.27;;;14.00;99.90;;;;;;4127979;28;20018;-61
2023/06/19 03:41:15;;;;;;;106.30;12.77;;;14.10;99.90;;;;;;4130048;28;20064;-64
2023/06/19 03:43:16;;;;;;;24.73;10.25;;;14.20;99.90;;;;;;4145230;28;20119;-62
2023/06/19 03:45:17;;;;;;;94.22;12.25;;;14.20;99.90;;;;;;4131612;28;20910;-61
2023/06/19 03:47:19;;;;;;;83.20;11.90;;;14.20;99.90;;;;;;4130244;28;20034;-61
2023/06/19 03:49:20;;;;;;;107.65;12.18;;;14.10;99.90;;;;;;4130039;28;20039;-61
2023/06/19 03:51:21;;;;;;;243.05;15.35;;;14.10;99.90;;;;;;4130587;28;20061;-64
2023/06/19 03:53:22;;;;;;;174.98;12.88;;;14.10;99.90;;;;;;4131632;28;20082;-63
2023/06/19 03:55:24;;;;;;;122.15;13.27;;;14.00;99.90;;;;;;4130517;28;20030;-62
2023/06/19 03:57:25;;;;;;;221.18;15.65;;;14.00;99.90;;;;;;4131086;28;20557;-60
2023/06/19 03:59:26;;;;;;;178.43;15.57;;;14.10;99.90;;;;;;4130443;28;20042;-63
2023/06/19 04:01:27;;;;;;;43.53;12.38;;;14.10;99.90;;;;;;4131549;28;20023;-63
2023/06/19 04:03:28;;;;;;;17.67;12.63;;;14.30;99.90;;;;;;4129222;28;20042;-62
2023/06/19 04:05:29;;;;;;;150.20;15.63;;;14.60;99.90;;;;;;4130134;28;20042;-63
2023/06/19 04:07:31;;;;;;;45.35;11.68;;;14.70;99.90;;;;;;4129885;28;20439;-62
2023/06/19 04:09:32;;;;;;;115.72;12.05;;;14.80;99.90;;;;;;4129412;28;20050;-65
2023/06/19 04:11:33;;;;;;;18.75;11.35;;;14.80;99.90;;;;;;4130241;28;20454;-61
2023/06/19 04:13:34;;;;;;;16.70;11.23;;;14.80;99.90;;;;;;4130246;28;20077;-61
2023/06/19 04:15:37;;;;;;;18.70;11.55;;;14.90;99.90;;;;;;4130224;28;20050;-61
2023/06/19 04:17:38;;;;;;;15.32;11.27;;;15.00;99.90;;;;;;4113863;28;20046;-63
2023/06/19 04:19:39;;;;;;;19.25;11.07;;;15.00;99.90;;;;;;4115268;28;20376;-63
2023/06/19 04:21:40;;;;;;;279.75;16.83;;;15.20;99.90;;;;;;4113396;28;20034;-63
2023/06/19 04:23:41;;;;;;;54.28;11.60;;;15.20;99.90;;;;;;4125901;28;20379;-61
2023/06/19 04:25:42;;;;;;;154.57;14.23;;;15.10;99.90;;;;;;4129289;28;20474;-62
2023/06/19 04:27:44;;;;;;;28.13;12.15;;;15.00;99.90;;;;;;4131135;28;20031;-61
2023/06/19 04:29:45;;;;;;;21.35;11.82;;;15.00;99.90;;;;;;4130038;28;20537;-62
2023/06/19 04:31:47;;;;;;;68.63;13.85;;;15.00;99.90;;;;;;4130845;28;20446;-63
2023/06/19 04:33:48;;;;;;;19.48;13.68;;;15.00;99.90;;;;;;4129354;28;20035;-61
2023/06/19 04:35:49;;;;;;;64.97;13.23;;;15.10;99.90;;;;;;4129833;28;20054;-61
2023/06/19 04:37:50;;;;;;;21.60;12.38;;;15.10;99.90;;;;;;4128712;28;20603;-63
2023/06/19 04:39:51;;;;;;;16.30;11.45;;;15.30;99.90;;;;;;4129759;28;20109;-62
2023/06/19 04:41:53;;;;;;;22.33;11.95;;;15.50;99.90;;;;;;4130373;28;20069;-61
2023/06/19 04:43:54;;;;;;;18.10;10.82;;;15.70;99.90;;;;;;4129634;28;20038;-63
2023/06/19 04:45:55;;;;;;;18.27;11.93;;;15.90;99.90;;;;;;4130266;28;20510;-63
2023/06/19 04:47:56;;;;;;;16.92;11.27;;;16.10;99.90;;;;;;4127716;28;20069;-62
2023/06/19 04:49:57;;;;;;;16.38;10.85;;;16.20;99.90;;;;;;4130673;28;20366;-64
2023/06/19 04:51:58;;;;;;;16.73;12.18;;;16.30;99.90;;;;;;4128943;28;20018;-63
2023/06/19 04:54:00;;;;;;;16.75;11.23;;;16.70;99.90;;;;;;4129915;28;20543;-63
2023/06/19 04:56:01;;;;;;;17.05;11.40;;;17.10;99.90;;;;;;4128401;28;20199;-61
2023/06/19 04:58:02;;;;;;;14.27;10.50;;;17.40;99.90;;;;;;4128341;28;20042;-63
2023/06/19 05:00:07;;;;;;;16.55;11.13;;;17.60;99.90;;;;;;4112863;28;20094;-62
2023/06/19 05:02:08;;;;;;;15.68;11.13;;;17.90;99.90;;;;;;4130054;28;20042;-61
2023/06/19 05:04:10;;;;;;;15.15;11.68;;;18.20;99.90;;;;;;4128998;28;20475;-62
2023/06/19 05:06:12;;;;;;;19.15;10.93;;;18.70;99.90;;;;;;4127108;28;20047;-63
2023/06/19 05:08:13;;;;;;;17.00;11.43;;;19.20;99.90;;;;;;4112667;28;20038;-61
2023/06/19 05:10:14;;;;;;;21.38;10.85;;;19.60;99.90;;;;;;4127309;28;20100;-61
2023/06/19 05:12:15;;;;;;;18.77;10.82;;;20.10;99.90;;;;;;4129588;28;20034;-62
2023/06/19 05:14:17;;;;;;;20.25;11.85;;;20.50;99.90;;;;;;4129446;28;20097;-61
2023/06/19 05:16:19;;;;;;;19.17;10.65;;;20.60;99.90;;;;;;4144364;28;20022;-63
2023/06/19 05:18:20;;;;;;;16.83;10.20;;;20.60;99.90;;;;;;4128693;28;20038;-62
2023/06/19 05:20:21;;;;;;;21.08;10.38;;;20.40;99.90;;;;;;4129306;28;20298;-63
2023/06/19 05:22:23;;;;;;;13.95;9.02;;;20.40;99.90;;;;;;4128423;28;20084;-62
2023/06/19 05:24:25;;;;;;;14.10;8.68;;;20.30;99.90;;;;;;4129720;28;20084;-62
2023/06/19 05:26:26;;;;;;;18.33;9.88;;;20.50;99.90;;;;;;4128252;28;20042;-62
2023/06/19 05:28:27;;;;;;;18.23;9.15;;;20.60;99.90;;;;;;4129845;28;20042;-61
2023/06/19 05:30:28;;;;;;;13.15;8.38;;;20.30;99.90;;;;;;4127873;28;20206;-64
2023/06/19 05:32:31;;;;;;;13.38;8.85;;;19.60;99.90;;;;;;4129960;28;20026;-62
2023/06/19 05:34:32;;;;;;;8.63;7.72;;;19.20;99.90;;;;;;4128578;28;20573;-62
2023/06/19 05:36:33;;;;;;;9.55;7.45;;;19.20;99.90;;;;;;4129615;28;20030;-62
2023/06/19 05:38:34;;;;;;;10.18;7.78;;;19.10;99.90;;;;;;4128050;28;20065;-61
2023/06/19 05:40:36;;;;;;;7.75;7.03;;;19.20;99.90;;;;;;4129230;28;20506;-62
2023/06/19 05:42:37;;;;;;;10.32;7.70;;;19.30;99.90;;;;;;4129034;28;20037;-61
2023/06/19 05:44:40;;;;;;;9.00;7.07;;;19.50;99.90;;;;;;4128512;28;20097;-61
2023/06/19 05:46:41;;;;;;;8.93;7.47;;;19.20;99.90;;;;;;4128971;28;20042;-63
2023/06/19 05:48:42;;;;;;;10.10;7.32;;;19.40;99.90;;;;;;4127919;28;20038;-62
2023/06/19 05:50:43;;;;;;;9.07;6.97;;;19.30;99.90;;;;;;4128529;28;20038;-62
2023/06/19 05:52:44;;;;;;;8.40;7.47;;;19.20;99.90;;;;;;4127379;28;20202;-63
2023/06/19 05:54:45;;;;;;;8.88;7.32;;;19.00;99.90;;;;;;4129518;28;20022;-61
2023/06/19 05:56:50;;;;;;;10.18;7.80;;;18.90;99.90;;;;;;4127988;28;20038;-62
2023/06/19 05:58:51;;;;;;;10.70;8.15;;;18.90;99.90;;;;;;4129294;28;20533;-65
2023/06/19 06:00:57;;;;;;;9.65;7.35;;;18.80;99.90;;;;;;4126164;28;20046;-62
2023/06/19 06:02:59;;;;;;;8.48;7.15;;;19.20;99.90;;;;;;4128980;28;20018;-62
2023/06/19 06:05:00;;;;;;;10.88;7.55;;;19.40;99.90;;;;;;4127922;28;20537;-62
2023/06/19 06:07:02;;;;;;;10.70;6.82;;;19.90;99.90;;;;;;4128058;28;20092;-68
2023/06/19 06:09:03;;;;;;;9.48;7.80;;;19.80;99.90;;;;;;4126832;28;20088;-62
2023/06/19 06:11:04;;;;;;;8.68;7.00;;;19.90;99.90;;;;;;4128013;28;20105;-63
2023/06/19 06:13:05;;;;;;;9.43;6.90;;;20.10;99.90;;;;;;4127709;28;20034;-61
2023/06/19 06:15:07;;;;;;;9.80;7.15;;;20.20;99.90;;;;;;4129178;28;20054;-62
2023/06/19 06:17:08;;;;;;;9.27;7.20;;;20.60;99.90;;;;;;4128707;28;20018;-63
2023/06/19 06:19:09;;;;;;;10.15;6.80;;;20.70;99.90;;;;;;4128636;28;20084;-62
2023/06/19 06:21:12;;;;;;;8.65;6.30;;;21.00;99.90;;;;;;4129071;28;20065;-62
2023/06/19 06:23:14;;;;;;;10.68;7.38;;;21.50;99.90;;;;;;4127534;28;20046;-62
2023/06/19 06:25:15;;;;;;;8.82;7.90;;;21.40;99.90;;;;;;4143193;28;20069;-61
2023/06/19 06:27:16;;;;;;;8.82;7.00;;;21.50;99.90;;;;;;4127403;28;20039;-62
2023/06/19 06:29:17;;;;;;;9.00;7.70;;;21.60;99.90;;;;;;4128816;28;20073;-61
2023/06/19 06:31:18;;;;;;;9.55;7.22;;;21.90;99.90;;;;;;4127961;28;20091;-62
2023/06/19 06:33:19;;;;;;;9.02;7.10;;;22.60;99.90;;;;;;4128804;28;20053;-61
2023/06/19 06:35:21;;;;;;;9.25;7.53;;;22.90;99.90;;;;;;4127839;28;20027;-62
2023/06/19 06:37:22;;;;;;;8.85;7.20;;;23.20;99.90;;;;;;4128137;28;20050;-61
2023/06/19 06:39:24;;;;;;;9.70;7.35;;;22.80;99.90;;;;;;4142808;28;20086;-61
2023/06/19 06:41:25;;;;;;;11.80;7.38;;;23.00;99.90;;;;;;4129003;28;20065;-62
2023/06/19 06:43:26;;;;;;;10.82;8.30;;;23.10;99.90;;;;;;4127783;28;20039;-62
2023/06/19 06:45:27;;;;;;;13.00;8.27;;;22.70;99.90;;;;;;4128280;28;20053;-62
2023/06/19 06:47:28;;;;;;;9.63;8.50;;;22.40;99.90;;;;;;4128008;28;20522;-62
2023/06/19 06:49:30;;;;;;;10.07;7.95;;;22.40;99.90;;;;;;4127391;28;20050;-63
2023/06/19 06:51:31;;;;;;;10.93;8.25;;;22.60;99.90;;;;;;4126094;28;20450;-62
2023/06/19 06:53:32;;;;;;;12.73;9.68;;;23.30;99.90;;;;;;4111770;28;20026;-61
2023/06/19 06:55:33;;;;;;;11.85;8.27;;;23.50;99.90;;;;;;4117549;28;20039;-62
2023/06/19 06:57:35;;;;;;;10.75;9.02;;;23.40;99.90;;;;;;4126804;28;20149;-62
2023/06/19 06:59:36;;;;;;;13.05;9.02;;;23.10;99.90;;;;;;4127474;28;20046;-66
2023/06/19 07:01:37;;;;;;;13.32;8.77;;;22.90;99.90;;;;;;4127806;28;20023;-63
2023/06/19 07:03:39;;;;;;;10.95;7.90;;;22.50;99.90;;;;;;4128804;28;20104;-67
2023/06/19 07:05:40;;;;;;;18.85;8.52;;;22.70;99.90;;;;;;4126828;28;20078;-65
2023/06/19 07:07:41;;;;;;;14.43;10.57;;;22.80;99.90;;;;;;4127243;28;20093;-67
2023/06/19 07:09:42;;;;;;;10.93;8.63;;;22.70;99.90;;;;;;4127079;28;20034;-65
2023/06/19 07:11:43;;;;;;;13.55;8.13;;;22.40;99.90;;;;;;4128373;28;20039;-67
2023/06/19 07:13:44;;;;;;;8.30;7.22;;;22.30;99.90;;;;;;4142356;28;20092;-65
2023/06/19 07:15:46;;;;;;;10.45;8.35;;;22.20;99.90;;;;;;4129505;28;20050;-63
2023/06/19 07:17:47;;;;;;;10.57;9.00;;;22.20;99.90;;;;;;4125382;28;20487;-62
2023/06/19 07:19:48;;;;;;;11.90;8.13;;;22.00;99.90;;;;;;4131249;28;20039;-65
2023/06/19 07:21:53;;;;;;;9.75;7.18;;;21.80;99.90;;;;;;4130666;28;20038;-65
2023/06/19 07:23:54;;;;;;;9.18;7.32;;;21.90;99.90;;;;;;4129446;28;20383;-65
2023/06/19 07:25:56;;;;;;;11.43;8.13;;;21.60;99.90;;;;;;4130719;28;20120;-65
2023/06/19 07:27:57;;;;;;;9.23;8.05;;;21.30;99.90;;;;;;4130646;28;20030;-62
2023/06/19 07:29:58;;;;;;;9.60;7.82;;;21.30;99.90;;;;;;4131653;28;20034;-62
2023/06/19 07:32:02;;;;;;;9.52;7.20;;;21.30;99.90;;;;;;4142581;28;20034;-66
2023/06/19 07:34:03;;;;;;;7.90;7.10;;;21.30;99.90;;;;;;4115818;28;20073;-65
2023/06/19 07:36:04;;;;;;;12.48;7.20;;;21.10;99.90;;;;;;4114520;28;20035;-61
2023/06/19 07:38:05;;;;;;;11.88;7.65;;;21.20;99.90;;;;;;4115587;28;20058;-66
2023/06/19 07:40:07;;;;;;;9.75;7.45;;;21.30;99.90;;;;;;4118100;28;20096;-67
2023/06/19 07:42:10;;;;;;;8.27;7.43;;;21.30;99.90;;;;;;4131835;28;20112;-61
2023/06/19 07:44:11;;;;;;;9.73;6.80;;;21.30;99.90;;;;;;4129701;28;20042;-64
2023/06/19 07:46:12;;;;;;;7.63;6.78;;;21.30;99.90;;;;;;4131165;28;20034;-63
2023/06/19 07:48:13;;;;;;;8.63;7.72;;;21.30;99.90;;;;;;4129104;28;20088;-63
2023/06/19 07:50:14;;;;;;;12.35;6.95;;;21.20;99.90;;;;;;4129558;28;20384;-64
2023/06/19 07:52:16;;;;;;;8.90;7.25;;;21.20;99.90;;;;;;4130615;28;20108;-63
2023/06/19 07:54:17;;;;;;;8.00;7.20;;;21.30;99.90;;;;;;4130440;28;20446;-66
2023/06/19 07:56:18;;;;;;;7.53;6.78;;;21.40;99.90;;;;;;4130774;28;20545;-67
2023/06/19 07:58:19;;;;;;;8.82;6.53;;;21.60;99.90;;;;;;4128184;28;20093;-65
2023/06/19 08:00:20;;;;;;;9.60;6.68;;;21.60;99.90;;;;;;4130824;28;20479;-67
2023/06/19 08:02:21;;;;;;;9.00;7.13;;;21.60;99.90;;;;;;4129733;28;20035;-66
2023/06/19 08:04:22;;;;;;;8.68;7.15;;;21.60;99.90;;;;;;4131641;28;20069;-68
2023/06/19 08:06:24;;;;;;;9.98;7.20;;;21.70;99.90;;;;;;4144363;28;20054;-67
2023/06/19 08:08:25;;;;;;;8.70;7.80;;;21.80;99.90;;;;;;4131117;28;20100;-66
2023/06/19 08:10:26;;;;;;;8.88;7.57;;;21.90;99.90;;;;;;4129759;28;20471;-66
2023/06/19 08:12:27;;;;;;;8.40;7.57;;;21.90;99.90;;;;;;4131314;28;20092;-69
2023/06/19 08:14:28;;;;;;;8.25;6.93;;;22.10;99.90;;;;;;4130001;28;20039;-69
2023/06/19 08:16:29;;;;;;;8.52;7.35;;;22.30;99.90;;;;;;4130628;28;20026;-65
2023/06/19 08:18:30;;;;;;;9.05;7.80;;;22.20;99.90;;;;;;4129996;28;20052;-68
2023/06/19 08:20:32;;;;;;;10.43;8.00;;;22.10;99.90;;;;;;4130464;28;20027;-66
2023/06/19 08:22:33;;;;;;;9.07;7.53;;;22.10;99.90;;;;;;4128113;28;20034;-64
2023/06/19 08:24:39;;;;;;;8.02;7.18;;;22.10;99.90;;;;;;4130231;28;20039;-67
2023/06/19 08:26:40;;;;;;;9.90;8.40;;;22.00;99.90;;;;;;4129064;28;20054;-62
2023/06/19 08:28:41;;;;;;;8.95;7.60;;;22.20;99.90;;;;;;4132953;28;20482;-67
2023/06/19 08:30:45;;;;;;;12.90;8.10;;;22.50;99.90;;;;;;4141564;28;20038;-67
2023/06/19 08:32:48;;;;;;;10.00;8.00;;;22.60;99.90;;;;;;4121023;28;20030;-66
2023/06/19 08:34:49;;;;;;;10.77;8.85;;;22.70;99.90;;;;;;4133179;28;20022;-66
2023/06/19 08:36:50;;;;;;;8.55;7.65;;;22.80;99.90;;;;;;4128896;28;20042;-64
2023/06/19 08:38:52;;;;;;;8.15;7.35;;;23.10;99.90;;;;;;4115850;28;20038;-63
2023/06/19 08:40:55;;;;;;;7.55;6.85;;;23.10;99.90;;;;;;4137926;28;20120;-62
2023/06/19 08:42:56;;;;;;;9.48;7.88;;;23.30;99.90;;;;;;4146850;28;20045;-64
2023/06/19 08:44:57;;;;;;;10.68;7.40;;;23.60;99.90;;;;;;4132417;28;20518;-61
2023/06/19 08:46:58;;;;;;;9.10;7.50;;;23.50;99.90;;;;;;4129608;28;20092;-65
2023/06/19 08:49:00;;;;;;;9.05;6.95;;;23.60;99.90;;;;;;4128717;28;20136;-65
2023/06/19 08:51:01;;;;;;;8.13;7.32;;;23.80;99.90;;;;;;4135306;28;20440;-65
2023/06/19 08:53:02;;;;;;;10.93;8.20;;;23.60;99.90;;;;;;4128599;28;20438;-69
2023/06/19 08:55:04;;;;;;;7.95;7.15;;;23.60;99.90;;;;;;4129393;28;20035;-67
2023/06/19 08:57:06;;;;;;;9.65;7.15;;;23.80;99.90;;;;;;4114692;28;20038;-66
2023/06/19 08:59:11;;;;;;;9.32;7.28;;;23.90;99.90;;;;;;4133542;28;20038;-63
2023/06/19 09:01:17;;;;;;;8.77;7.63;;;24.00;99.90;;;;;;4128499;28;20042;-66
2023/06/19 09:03:22;;;;;;;7.97;7.15;;;24.00;99.90;;;;;;4126210;28;20116;-66
2023/06/19 09:05:23;;;;;;;8.30;7.47;;;24.00;99.90;;;;;;4129122;28;20410;-63
2023/06/19 09:07:24;;;;;;;7.95;6.70;;;23.80;99.90;;;;;;4124698;28;20105;-63
2023/06/19 09:09:26;;;;;;;8.27;6.85;;;24.10;99.90;;;;;;4128642;28;20101;-65
2023/06/19 09:11:28;;;;;;;9.18;6.82;;;24.30;99.90;;;;;;4128846;28;20487;-66
2023/06/19 09:13:31;;;;;;;10.77;7.55;;;24.40;99.90;;;;;;4142629;28;20037;-66
2023/06/19 09:15:36;;;;;;;12.88;7.30;;;24.40;99.90;;;;;;4143636;28;20030;-68
2023/06/19 09:17:37;;;;;;;15.05;6.70;;;24.30;99.90;;;;;;4129375;28;20554;-64
2023/06/19 09:19:50;;;;;;;8.18;6.72;;;24.10;99.90;;;;;;4127767;28;20097;-64
2023/06/19 09:21:52;;;;;;;8.15;6.40;;;24.00;99.90;;;;;;4128910;28;20694;-67
2023/06/19 09:23:53;;;;;;;11.45;7.43;;;24.00;99.90;;;;;;4128593;28;20146;-63
2023/06/19 09:25:56;;;;;;;7.35;6.65;;;24.00;99.90;;;;;;4128736;28;20396;-66
2023/06/19 09:27:57;;;;;;;6.63;5.95;;;24.20;99.90;;;;;;4128286;28;20038;-66
2023/06/19 09:30:00;;;;;;;7.10;6.25;;;24.20;99.90;;;;;;4129474;28;20100;-67
2023/06/19 09:32:01;;;;;;;7.10;6.43;;;24.20;99.90;;;;;;4128485;28;20034;-66
2023/06/19 09:34:02;;;;;;;6.80;6.13;;;24.20;99.90;;;;;;4128483;28;20730;-66
2023/06/19 09:36:05;;;;;;;8.48;6.28;;;24.20;99.90;;;;;;4128271;28;20026;-67
2023/06/19 09:38:06;;;;;;;7.20;6.53;;;24.00;99.90;;;;;;4127994;28;20026;-67
2023/06/19 09:40:10;;;;;;;7.13;5.80;;;23.90;99.90;;;;;;4128604;28;20100;-70
2023/06/19 09:42:14;;;;;;;7.60;5.70;;;24.00;99.90;;;;;;4128319;28;20030;-66
2023/06/19 09:44:16;;;;;;;7.00;6.30;;;24.20;99.90;;;;;;4129228;28;20160;-69
2023/06/19 09:46:19;;;;;;;7.15;5.93;;;24.30;99.90;;;;;;4127935;28;20080;-63
2023/06/19 09:48:26;;;;;;;6.90;6.20;;;24.20;99.90;;;;;;4128494;28;20546;-62
2023/06/19 09:50:29;;;;;;;6.35;5.65;;;24.00;99.90;;;;;;4127811;28;20026;-63
2023/06/19 09:52:30;;;;;;;6.43;5.70;;;24.00;99.90;;;;;;4128908;28;20038;-60
2023/06/19 09:54:32;;;;;;;6.85;6.03;;;23.90;99.90;;;;;;4127671;28;20487;-60
2023/06/19 09:56:34;;;;;;;5.97;5.40;;;24.00;99.90;;;;;;4129067;28;20023;-64
2023/06/19 09:58:37;;;;;;;6.43;5.82;;;24.00;99.90;;;;;;4127411;28;20026;-64
2023/06/19 10:00:39;;;;;;;11.93;8.18;;;24.00;99.90;;;;;;4128208;28;20106;-68
2023/06/19 10:02:46;;;;;;;6.25;5.65;;;24.10;99.90;;;;;;4128004;28;20026;-66
2023/06/19 10:04:51;;;;;;;10.38;7.13;;;24.10;99.90;;;;;;4128947;28;20371;-66
2023/06/19 10:06:54;;;;;;;6.03;5.53;;;24.10;99.90;;;;;;4141876;28;20493;-64
2023/06/19 10:09:06;;;;;;;7.90;5.57;;;24.30;99.90;;;;;;4128811;28;20081;-67
2023/06/19 10:11:07;;;;;;;6.10;5.28;;;24.40;99.90;;;;;;4127502;28;20105;-63
2023/06/19 10:13:18;;;;;;;6.82;6.07;;;24.70;99.90;;;;;;4134058;28;20033;-67
2023/06/19 10:15:20;;;;;;;7.10;5.15;;;24.80;99.90;;;;;;4144370;28;20430;-68
2023/06/19 10:17:23;;;;;;;84.60;44.92;;;25.00;99.90;;;;;;4144872;28;20125;-69
2023/06/19 10:19:24;;;;;;;21.45;11.95;;;25.10;99.90;;;;;;4142547;28;20029;-67
2023/06/19 10:21:25;;;;;;;6.30;5.70;;;25.20;99.90;;;;;;4126960;28;20104;-65
2023/06/19 10:23:28;;;;;;;7.72;4.70;;;25.20;99.90;;;;;;4127298;28;20030;-61
2023/06/19 10:25:31;;;;;;;7.43;6.72;;;25.20;99.90;;;;;;4120426;28;20113;-68
2023/06/19 10:27:38;;;;;;;19.05;12.80;;;25.30;99.90;;;;;;4127542;28;20120;-67